createdAt,value
2018-05-12T00:00:45.937Z,24
2018-05-12T00:02:45.929Z,24
2018-05-12T00:04:46.265Z,24
2018-05-12T00:06:46.145Z,24.5
2018-05-12T00:08:46.573Z,25.1
2018-05-12T00:10:46.608Z,24
2018-05-12T00:12:47.210Z,24.5
2018-05-12T00:14:46.832Z,24.5
2018-05-12T00:16:47.039Z,25.1
2018-05-12T00:18:46.950Z,24
2018-05-12T00:20:47.392Z,24.5
2018-05-12T00:22:47.196Z,24
2018-05-12T00:24:47.349Z,24
2018-05-12T00:26:47.515Z,24
2018-05-12T00:28:47.698Z,24.5
2018-05-12T00:30:47.832Z,24.5
2018-05-12T00:32:48.196Z,24.5
2018-05-12T00:34:48.282Z,24.5
2018-05-12T00:36:48.405Z,24
2018-05-12T00:38:48.523Z,24.5
2018-05-12T00:40:48.506Z,24
2018-05-12T00:42:48.689Z,24
2018-05-12T00:44:49.067Z,24
2018-05-12T00:46:48.898Z,24.5
2018-05-12T00:48:49.021Z,24
2018-05-12T00:50:49.322Z,24
2018-05-12T00:52:49.464Z,24.5
2018-05-12T00:54:49.559Z,24
2018-05-12T00:56:49.741Z,24
2018-05-12T00:58:49.657Z,24
2018-05-12T01:00:49.782Z,24.5
2018-05-12T01:02:50.248Z,24
2018-05-12T01:04:50.022Z,24
2018-05-12T01:06:50.259Z,24.5
2018-05-12T01:08:50.561Z,24
2018-05-12T01:10:50.695Z,24.5
2018-05-12T01:12:50.951Z,24
2018-05-12T01:14:50.915Z,24.5
2018-05-12T01:16:50.893Z,24.5
2018-05-12T01:18:51.215Z,24.5
2018-05-12T01:20:51.319Z,24
2018-05-12T01:22:51.525Z,24
2018-05-12T01:24:51.642Z,24
2018-05-12T01:26:51.838Z,24.5
2018-05-12T01:28:51.738Z,24
2018-05-12T01:30:51.873Z,24
2018-05-12T01:32:52.201Z,25.1
2018-05-12T01:34:52.167Z,24
2018-05-12T01:36:52.503Z,24
2018-05-12T01:38:52.604Z,24
2018-05-12T01:40:52.746Z,24.5
2018-05-12T01:43:11.217Z,24.5
2018-05-12T01:44:52.861Z,24
2018-05-12T01:46:52.936Z,24
2018-05-12T01:48:53.261Z,24
2018-05-12T01:50:53.219Z,24
2018-05-12T01:52:53.317Z,24
2018-05-12T01:54:53.435Z,24
2018-05-12T01:56:53.733Z,24
2018-05-12T01:58:53.889Z,24.5
2018-05-12T02:00:53.993Z,24
2018-05-12T02:02:54.113Z,24.5
2018-05-12T02:04:54.083Z,23.5
2018-05-12T02:06:54.372Z,24
2018-05-12T02:08:54.650Z,24.5
2018-05-12T02:10:54.458Z,25.1
2018-05-12T02:12:54.617Z,24.5
2018-05-12T02:14:55.117Z,24
2018-05-12T02:16:55.140Z,24
2018-05-12T02:18:55.259Z,24
2018-05-12T02:20:55.513Z,24
2018-05-12T02:22:55.548Z,24
2018-05-12T02:24:55.498Z,24
2018-05-12T02:26:55.809Z,24.5
2018-05-12T02:28:55.778Z,24
2018-05-12T02:30:55.920Z,24.5
2018-05-12T02:32:56.193Z,24
2018-05-12T02:34:56.191Z,24
2018-05-12T02:36:56.317Z,24
2018-05-12T02:38:56.613Z,24
2018-05-12T02:40:56.732Z,24.5
2018-05-12T02:42:56.730Z,24.5
2018-05-12T02:44:57.049Z,24.5
2018-05-12T02:46:56.964Z,24.5
2018-05-12T02:48:57.290Z,24
2018-05-12T02:50:57.597Z,24.5
2018-05-12T02:52:57.950Z,24
2018-05-12T02:54:57.536Z,24
2018-05-12T02:56:58.002Z,24
2018-05-12T02:58:58.023Z,24.5
2018-05-12T03:00:58.108Z,24.5
2018-05-12T03:02:58.396Z,24
2018-05-12T03:04:58.570Z,24
2018-05-12T03:06:58.497Z,24
2018-05-12T03:08:58.994Z,24
2018-05-12T03:10:58.773Z,24.5
2018-05-12T03:12:59.289Z,24
2018-05-12T03:14:59.226Z,24
2018-05-12T03:16:59.330Z,24.5
2018-05-12T03:18:59.327Z,24
2018-05-12T03:20:59.443Z,24.5
2018-05-12T03:22:59.751Z,24
2018-05-12T03:24:59.687Z,25.1
2018-05-12T03:27:00.015Z,24
2018-05-12T03:28:59.969Z,24
2018-05-12T03:31:00.484Z,24
2018-05-12T03:33:00.601Z,24.5
2018-05-12T03:35:00.560Z,24.5
2018-05-12T03:37:00.622Z,24
2018-05-12T03:39:00.794Z,24
2018-05-12T03:41:00.924Z,24
2018-05-12T03:43:01.072Z,24
2018-05-12T03:45:01.767Z,24
2018-05-12T03:47:01.393Z,24.5
2018-05-12T03:49:01.706Z,24
2018-05-12T03:51:01.773Z,24
2018-05-12T03:53:02.051Z,24
2018-05-12T03:55:02.217Z,24
2018-05-12T03:57:02.660Z,24.5
2018-05-12T03:59:02.569Z,24
2018-05-12T04:01:02.873Z,24
2018-05-12T04:03:02.974Z,24.5
2018-05-12T04:05:03.110Z,23.5
2018-05-12T04:07:03.252Z,25.1
2018-05-12T04:09:03.573Z,24
2018-05-12T04:11:03.348Z,24
2018-05-12T04:13:03.772Z,24
2018-05-12T04:15:03.911Z,24
2018-05-12T04:17:03.714Z,24
2018-05-12T04:19:03.820Z,24.5
2018-05-12T04:21:04.361Z,24.5
2018-05-12T04:23:04.262Z,24
2018-05-12T04:25:04.664Z,24
2018-05-12T04:27:04.646Z,24.5
2018-05-12T04:29:04.749Z,24.5
2018-05-12T04:31:04.729Z,24
2018-05-12T04:33:05.227Z,24
2018-05-12T04:35:05.357Z,24
2018-05-12T04:37:05.266Z,24
2018-05-12T04:39:05.622Z,24
2018-05-12T04:41:05.984Z,24
2018-05-12T04:43:05.889Z,24
2018-05-12T04:45:05.861Z,24
2018-05-12T04:47:06.503Z,24
2018-05-12T04:49:06.445Z,24
2018-05-12T04:51:06.563Z,23.5
2018-05-12T04:53:07.002Z,23.5
2018-05-12T04:55:06.794Z,24
2018-05-12T04:57:07.066Z,24
2018-05-12T04:59:07.212Z,24
2018-05-12T05:01:07.269Z,24.5
2018-05-12T05:03:07.483Z,24.5
2018-05-12T05:05:07.477Z,24
2018-05-12T05:07:07.651Z,24
2018-05-12T05:09:07.730Z,24
2018-05-12T05:11:08.038Z,24.5
2018-05-12T05:13:08.405Z,24.5
2018-05-12T05:15:08.507Z,24
2018-05-12T05:17:08.830Z,24
2018-05-12T05:19:08.976Z,24
2018-05-12T05:21:09.166Z,24
2018-05-12T05:23:09.407Z,24
2018-05-12T05:25:09.581Z,24
2018-05-12T05:27:09.455Z,23.5
2018-05-12T05:29:09.784Z,23.5
2018-05-12T05:31:09.954Z,24
2018-05-12T05:33:09.911Z,24
2018-05-12T05:35:10.165Z,24
2018-05-12T05:37:10.372Z,24
2018-05-12T05:39:10.488Z,24
2018-05-12T05:41:10.472Z,24
2018-05-12T05:43:10.916Z,24
2018-05-12T05:45:10.700Z,24
2018-05-12T05:47:10.992Z,24
2018-05-12T05:49:11.298Z,24
2018-05-12T05:51:11.148Z,24
2018-05-12T05:53:11.238Z,24
2018-05-12T05:55:11.396Z,24
2018-05-12T05:57:11.662Z,24
2018-05-12T05:59:11.813Z,24.5
2018-05-12T06:01:11.749Z,24
2018-05-12T06:03:12.125Z,24
2018-05-12T06:05:12.095Z,24
2018-05-12T06:07:12.449Z,23.5
2018-05-12T06:09:12.438Z,24
2018-05-12T06:11:12.682Z,24
2018-05-12T06:13:12.833Z,23.5
2018-05-12T06:15:13.061Z,24
2018-05-12T06:17:13.145Z,24
2018-05-12T06:19:13.427Z,24
2018-05-12T06:21:13.234Z,24.5
2018-05-12T06:23:13.546Z,24
2018-05-12T06:25:13.641Z,24
2018-05-12T06:27:13.769Z,23.5
2018-05-12T06:29:14.402Z,24
2018-05-12T06:31:13.855Z,24
2018-05-12T06:33:13.969Z,24
2018-05-12T06:35:14.582Z,24
2018-05-12T06:37:14.309Z,24
2018-05-12T06:39:14.536Z,24
2018-05-12T06:41:15.010Z,24
2018-05-12T06:43:14.835Z,24
2018-05-12T06:45:15.313Z,24
2018-05-12T06:47:15.303Z,24
2018-05-12T06:49:15.524Z,24
2018-05-12T06:51:15.781Z,24
2018-05-12T06:53:15.768Z,24
2018-05-12T06:55:15.710Z,24
2018-05-12T06:57:15.834Z,24.5
2018-05-12T06:59:16.143Z,24
2018-05-12T07:01:16.644Z,24
2018-05-12T07:03:16.377Z,24
2018-05-12T07:05:16.824Z,22.9
2018-05-12T07:07:16.776Z,24
2018-05-12T07:09:16.961Z,24
2018-05-12T07:11:17.212Z,24
2018-05-12T07:13:17.177Z,24
2018-05-12T07:15:17.278Z,24
2018-05-12T07:17:17.435Z,24
2018-05-12T07:19:17.655Z,24
2018-05-12T07:21:17.573Z,24
2018-05-12T07:23:18.025Z,24
2018-05-12T07:25:17.977Z,23.5
2018-05-12T07:27:18.127Z,24
2018-05-12T07:29:18.250Z,24
2018-05-12T07:31:18.395Z,24
2018-05-12T07:33:18.461Z,23.5
2018-05-12T07:35:19.007Z,24
2018-05-12T07:37:26.044Z,23.5
2018-05-12T07:39:19.110Z,24
2018-05-12T07:41:20.039Z,24
2018-05-12T07:43:19.695Z,24
2018-05-12T07:45:19.506Z,24
2018-05-12T07:47:19.596Z,23.5
2018-05-12T07:49:19.731Z,24
2018-05-12T07:51:19.690Z,24.5
2018-05-12T07:53:19.974Z,24.5
2018-05-12T07:55:20.035Z,24
2018-05-12T07:57:20.026Z,23.5
2018-05-12T07:59:20.852Z,24
2018-05-12T08:01:20.282Z,24
2018-05-12T08:03:20.752Z,24.5
2018-05-12T08:05:20.711Z,24
2018-05-12T08:07:20.951Z,24
2018-05-12T08:09:20.967Z,24
2018-05-12T08:11:21.288Z,24.5
2018-05-12T08:13:21.470Z,24.5
2018-05-12T08:15:21.833Z,24
2018-05-12T08:17:22.109Z,24
2018-05-12T08:19:22.061Z,24
2018-05-12T08:21:22.363Z,24
2018-05-12T08:23:22.371Z,24
2018-05-12T08:25:22.465Z,24
2018-05-12T08:27:22.483Z,24
2018-05-12T08:29:22.918Z,24
2018-05-12T08:31:22.991Z,24
2018-05-12T08:33:22.969Z,24
2018-05-12T08:35:23.395Z,24
2018-05-12T08:37:23.358Z,24
2018-05-12T08:39:23.566Z,24
2018-05-12T08:41:23.862Z,24.5
2018-05-12T08:43:24.727Z,24
2018-05-12T08:45:24.255Z,23.5
2018-05-12T08:47:24.753Z,23.5
2018-05-12T08:49:25.561Z,24
2018-05-12T08:51:24.520Z,24
2018-05-12T08:53:24.554Z,24
2018-05-12T08:55:24.810Z,24
2018-05-12T08:57:25.239Z,23.5
2018-05-12T08:59:25.858Z,24
2018-05-12T09:01:25.171Z,24.5
2018-05-12T09:03:25.340Z,24
2018-05-12T09:05:25.394Z,24
2018-05-12T09:07:25.312Z,24.5
2018-05-12T09:09:25.449Z,24.5
2018-05-12T09:11:25.595Z,24
2018-05-12T09:13:25.889Z,24
2018-05-12T09:15:25.960Z,24
2018-05-12T09:17:26.171Z,24.5
2018-05-12T09:19:25.954Z,24.5
2018-05-12T09:21:26.477Z,24.5
2018-05-12T09:23:26.945Z,24
2018-05-12T09:25:26.871Z,24.5
2018-05-12T09:27:27.061Z,24.5
2018-05-12T09:29:27.317Z,24.5
2018-05-12T09:31:27.107Z,24.5
2018-05-12T09:33:27.278Z,25.1
2018-05-12T09:35:27.419Z,24
2018-05-12T09:37:27.478Z,24
2018-05-12T09:39:27.771Z,24
2018-05-12T09:41:28.093Z,24
2018-05-12T09:43:27.881Z,24.5
2018-05-12T09:45:28.156Z,24.5
2018-05-12T09:47:28.303Z,24
2018-05-12T09:49:28.265Z,24
2018-05-12T09:51:28.551Z,24.5
2018-05-12T09:53:28.549Z,24
2018-05-12T09:55:28.635Z,24
2018-05-12T09:57:28.952Z,24
2018-05-12T09:59:29.125Z,24.5
2018-05-12T10:01:29.619Z,24
2018-05-12T10:03:29.192Z,24
2018-05-12T10:05:29.840Z,24
2018-05-12T10:07:29.661Z,23.5
2018-05-12T10:09:29.603Z,24
2018-05-12T10:11:30.054Z,24.5
2018-05-12T10:13:30.135Z,24
2018-05-12T10:15:30.058Z,24
2018-05-12T10:17:30.416Z,24.5
2018-05-12T10:19:30.638Z,24.5
2018-05-12T10:21:30.492Z,24
2018-05-12T10:23:31.108Z,24.5
2018-05-12T10:25:30.892Z,24
2018-05-12T10:27:30.874Z,24
2018-05-12T10:29:31.321Z,24
2018-05-12T10:31:31.296Z,23.5
2018-05-12T10:33:31.470Z,24
2018-05-12T10:35:31.902Z,23.5
2018-05-12T10:37:31.755Z,24
2018-05-12T10:39:32.019Z,23.5
2018-05-12T10:41:32.368Z,24
2018-05-12T10:43:32.007Z,24
2018-05-12T10:45:32.236Z,24
2018-05-12T10:47:32.478Z,23.5
2018-05-12T10:49:32.339Z,24.5
2018-05-12T10:51:32.610Z,24
2018-05-12T10:53:32.626Z,24
2018-05-12T10:55:32.840Z,24
2018-05-12T10:57:32.952Z,24.5
2018-05-12T10:59:33.118Z,24.5
2018-05-12T11:01:33.345Z,24
2018-05-12T11:03:33.343Z,24.5
2018-05-12T11:05:33.597Z,24.5
2018-05-12T11:07:33.567Z,24
2018-05-12T11:09:33.787Z,24.5
2018-05-12T11:11:34.119Z,24.5
2018-05-12T11:13:33.941Z,24.5
2018-05-12T11:15:34.204Z,24.5
2018-05-12T11:17:34.546Z,24
2018-05-12T11:19:34.454Z,24
2018-05-12T11:21:34.684Z,24.5
2018-05-12T11:23:34.568Z,25.1
2018-05-12T11:25:34.887Z,24.5
2018-05-12T11:27:34.853Z,24.5
2018-05-12T11:29:36.672Z,24.5
2018-05-12T11:31:37.238Z,24.5
2018-05-12T11:33:42.381Z,24.5
2018-05-12T11:35:35.542Z,24
2018-05-12T11:37:35.653Z,24
2018-05-12T11:39:35.631Z,24
2018-05-12T11:41:36.239Z,25.1
2018-05-12T11:43:36.029Z,24.5
2018-05-12T11:45:36.616Z,24.5
2018-05-12T11:47:36.641Z,24
2018-05-12T11:49:36.688Z,24
2018-05-12T11:51:36.813Z,24
2018-05-12T11:53:36.643Z,24
2018-05-12T11:55:42.244Z,24
2018-05-12T11:57:37.101Z,24
2018-05-12T11:59:37.238Z,24
2018-05-12T12:01:37.564Z,24
2018-05-12T12:03:37.550Z,24
2018-05-12T12:05:37.873Z,24
2018-05-12T12:07:38.052Z,24.5
2018-05-12T12:09:37.808Z,24.5
2018-05-12T12:11:38.362Z,25.1
2018-05-12T12:13:38.584Z,24.5
2018-05-12T12:15:38.633Z,24
2018-05-12T12:17:38.946Z,25.1
2018-05-12T12:19:38.596Z,25.1
2018-05-12T12:21:38.764Z,24
2018-05-12T12:23:39.064Z,24.5
2018-05-12T12:25:40.214Z,24.5
2018-05-12T12:27:39.355Z,24.5
2018-05-12T12:29:39.634Z,25.1
2018-05-12T12:31:40.032Z,24
2018-05-12T12:33:39.651Z,25.1
2018-05-12T12:35:39.964Z,24
2018-05-12T12:37:40.047Z,24
2018-05-12T12:39:40.033Z,24.5
2018-05-12T12:41:40.728Z,25.1
2018-05-12T12:43:41.142Z,25.1
2018-05-12T12:45:40.811Z,25.1
2018-05-12T12:47:40.978Z,25.1
2018-05-12T12:49:41.097Z,24.5
2018-05-12T12:51:41.444Z,25.1
2018-05-12T12:53:41.375Z,24.5
2018-05-12T12:55:41.755Z,25.1
2018-05-12T12:57:42.682Z,24
2018-05-12T12:59:41.813Z,24.5
2018-05-12T13:01:42.319Z,25.1
2018-05-12T13:03:41.980Z,25.1
2018-05-12T13:05:42.332Z,24.5
2018-05-12T13:07:42.497Z,25.1
2018-05-12T13:09:42.441Z,25.1
2018-05-12T16:50:07.052Z,19.700000000000003
2018-05-12T16:52:07.105Z,20.799999999999997
2018-05-12T16:54:07.304Z,20.799999999999997
2018-05-12T16:56:07.433Z,22.9
2018-05-12T16:58:07.795Z,21.9
2018-05-12T17:00:07.594Z,22.9
2018-05-12T17:02:08.019Z,22.9
2018-05-12T17:04:08.061Z,23.5
2018-05-12T17:06:08.158Z,23.5
2018-05-12T17:08:08.407Z,24
2018-05-12T17:10:08.565Z,24
2018-05-12T17:12:08.744Z,24
2018-05-12T17:14:09.034Z,24
2018-05-12T17:16:09.172Z,24
2018-05-12T17:18:09.223Z,24
2018-05-12T17:20:09.485Z,24
2018-05-12T17:22:09.481Z,24
2018-05-12T17:24:09.663Z,24.5
2018-05-12T17:26:09.797Z,24
2018-05-12T17:28:09.955Z,25.1
2018-05-12T17:30:10.198Z,24
2018-05-12T17:32:10.486Z,24.5
2018-05-12T17:34:10.711Z,25.1
2018-05-12T17:36:10.701Z,24.5
2018-05-12T17:38:11.007Z,25.1
2018-05-12T17:40:11.140Z,25.1
2018-05-12T17:42:11.122Z,24
2018-05-12T17:44:11.532Z,24.5
2018-05-12T17:46:11.457Z,24.5
2018-05-12T17:48:11.564Z,24
2018-05-12T17:50:11.930Z,25.1
2018-05-12T17:52:12.137Z,24.5
2018-05-12T17:54:12.265Z,24.5
2018-05-12T17:56:12.619Z,25.1
2018-05-12T17:58:12.628Z,25.1
2018-05-12T18:00:12.953Z,24
2018-05-12T18:02:12.911Z,24.5
2018-05-12T18:04:13.470Z,25.1
2018-05-12T18:06:13.800Z,25.1
2018-05-12T18:08:13.469Z,25.1
2018-05-12T18:10:13.710Z,24.5
2018-05-12T18:12:14.229Z,24.5
2018-05-12T18:14:14.293Z,24.5
2018-05-12T18:16:14.359Z,25.1
2018-05-12T18:18:14.629Z,25.1
2018-05-12T18:20:14.801Z,24.5
2018-05-12T18:22:14.875Z,25.1
2018-05-12T18:24:14.944Z,24.5
2018-05-12T18:26:15.251Z,24.5
2018-05-12T18:28:15.225Z,25.6
2018-05-12T18:30:15.859Z,25.1
2018-05-12T18:32:15.969Z,25.1
2018-05-12T18:34:15.775Z,25.1
2018-05-12T18:36:16.306Z,25.1
2018-05-12T18:38:16.272Z,25.1
2018-05-12T18:40:15.898Z,25.1
2018-05-12T18:42:15.964Z,25.1
2018-05-12T18:44:16.514Z,25.6
2018-05-12T18:46:16.392Z,25.1
2018-05-12T18:48:16.381Z,25.1
2018-05-12T18:50:16.911Z,25.1
2018-05-12T18:52:16.983Z,25.1
2018-05-12T18:54:17.146Z,25.1
2018-05-12T18:56:18.929Z,25.1
2018-05-12T18:58:17.441Z,25.1
2018-05-12T19:00:17.304Z,25.1
2018-05-12T19:02:17.669Z,25.1
2018-05-12T19:04:23.339Z,25.1
2018-05-12T19:06:17.991Z,25.1
2018-05-12T19:08:18.291Z,25.1
2018-05-12T19:10:17.950Z,25.1
2018-05-12T19:12:18.362Z,25.6
2018-05-12T19:14:18.154Z,25.1
2018-05-12T19:16:18.783Z,25.1
2018-05-12T19:18:19.016Z,25.1
2018-05-12T19:20:18.888Z,25.1
2018-05-12T19:22:18.867Z,25.6
2018-05-12T19:24:19.004Z,25.1
2018-05-12T19:26:19.107Z,25.1
2018-05-12T19:28:19.110Z,25.1
2018-05-12T19:30:19.231Z,25.1
2018-05-12T19:32:19.802Z,25.1
2018-05-12T19:34:19.799Z,26.200000000000003
2018-05-12T19:36:19.864Z,25.1
2018-05-12T19:38:20.474Z,25.1
2018-05-12T19:40:19.931Z,25.6
2018-05-12T19:42:20.419Z,25.1
2018-05-12T19:44:20.590Z,25.1
2018-05-12T19:46:20.507Z,25.1
2018-05-12T19:48:20.886Z,25.1
2018-05-12T19:50:20.575Z,25.1
2018-05-12T19:52:20.918Z,25.1
2018-05-12T19:54:20.809Z,25.6
2018-05-12T19:56:20.961Z,25.1
2018-05-12T19:58:21.275Z,25.1
2018-05-12T20:00:21.326Z,25.6
2018-05-12T20:02:21.961Z,25.1
2018-05-12T20:04:21.723Z,25.6
2018-05-12T20:06:21.711Z,25.1
2018-05-12T20:08:22.213Z,25.6
2018-05-12T20:10:22.333Z,25.6
2018-05-12T20:12:22.246Z,25.1
2018-05-12T20:14:22.501Z,25.1
2018-05-12T20:16:22.560Z,25.6
2018-05-12T20:18:22.860Z,25.6
2018-05-12T20:20:22.746Z,25.6
2018-05-12T20:22:23.447Z,25.1
2018-05-12T20:24:23.159Z,25.6
2018-05-12T20:26:23.327Z,25.6
2018-05-12T20:28:23.665Z,25.6
2018-05-12T20:30:23.335Z,25.1
2018-05-12T20:32:23.539Z,25.1
2018-05-12T20:34:23.707Z,25.1
2018-05-12T20:36:23.819Z,25.6
2018-05-12T20:38:24.104Z,25.1
2018-05-12T20:40:24.773Z,26.200000000000003
2018-05-12T20:42:24.808Z,26.200000000000003
2018-05-12T20:44:24.489Z,25.6
2018-05-12T20:46:25.272Z,25.1
2018-05-12T20:48:25.089Z,25.6
2018-05-12T20:50:25.239Z,25.6
2018-05-12T20:52:25.247Z,25.1
2018-05-12T20:54:25.495Z,25.6
2018-05-12T20:56:25.266Z,25.1
2018-05-12T20:58:25.740Z,25.6
2018-05-12T21:00:25.845Z,25.1
2018-05-12T21:02:25.898Z,25.6
2018-05-12T21:04:25.864Z,25.1
2018-05-12T21:06:26.425Z,25.6
2018-05-12T21:08:26.128Z,25.6
2018-05-12T21:10:26.550Z,25.1
2018-05-12T21:12:26.638Z,25.1
2018-05-12T21:14:26.530Z,26.200000000000003
2018-05-12T21:16:26.421Z,25.1
2018-05-12T21:18:26.525Z,26.200000000000003
2018-05-12T21:20:26.725Z,25.1
2018-05-12T21:22:27.103Z,25.1
2018-05-12T21:24:27.040Z,25.1
2018-05-12T21:26:27.289Z,25.1
2018-05-12T21:28:27.343Z,25.1
2018-05-12T21:30:27.379Z,25.6
2018-05-12T21:32:27.696Z,26.200000000000003
2018-05-12T21:34:27.857Z,25.6
2018-05-12T21:36:27.619Z,25.1
2018-05-12T21:38:27.700Z,25.1
2018-05-12T21:40:28.211Z,25.1
2018-05-12T21:42:28.095Z,25.1
2018-05-12T21:44:28.319Z,25.1
2018-05-12T21:46:28.624Z,25.1
2018-05-12T21:48:28.607Z,25.1
2018-05-12T21:50:28.532Z,25.1
2018-05-12T21:52:28.791Z,25.1
2018-05-12T21:54:29.383Z,25.1
2018-05-12T21:56:29.049Z,25.1
2018-05-12T21:58:29.387Z,25.1
2018-05-12T22:00:29.329Z,25.1
2018-05-12T22:02:29.477Z,25.6
2018-05-12T22:04:29.594Z,25.1
2018-05-12T22:06:29.776Z,25.1
2018-05-12T22:08:29.714Z,25.1
2018-05-12T22:10:30.009Z,25.1
2018-05-12T22:12:30.028Z,25.6
2018-05-12T22:14:30.120Z,25.1
2018-05-12T22:16:30.675Z,25.1
2018-05-12T22:18:30.611Z,25.1
2018-05-12T22:20:30.853Z,25.1
2018-05-12T22:22:31.313Z,25.1
2018-05-12T22:24:31.550Z,25.6
2018-05-12T22:26:31.221Z,25.1
2018-05-12T22:28:31.189Z,25.1
2018-05-12T22:30:31.392Z,25.1
2018-05-12T22:32:31.648Z,25.1
2018-05-12T22:34:31.984Z,25.1
2018-05-12T22:36:31.872Z,25.1
2018-05-12T22:38:31.846Z,25.1
2018-05-12T22:40:31.910Z,25.1
2018-05-12T22:42:32.682Z,25.1
2018-05-12T22:44:32.318Z,25.1
2018-05-12T22:46:32.606Z,25.1
2018-05-12T22:48:32.566Z,24.5
2018-05-12T22:50:32.838Z,25.1
2018-05-12T22:52:32.908Z,25.1
2018-05-12T22:54:33.095Z,25.1
2018-05-12T22:56:33.211Z,25.1
2018-05-12T22:58:33.342Z,24.5
2018-05-12T23:00:33.549Z,24.5
2018-05-12T23:02:33.568Z,25.1
2018-05-12T23:04:34.112Z,25.1
2018-05-12T23:06:34.210Z,25.1
2018-05-12T23:08:34.243Z,25.6
2018-05-12T23:10:34.490Z,25.1
2018-05-12T23:12:34.643Z,25.6
2018-05-12T23:14:34.681Z,25.1
2018-05-12T23:16:35.192Z,24.5
2018-05-12T23:18:35.073Z,25.1
2018-05-12T23:20:35.051Z,25.1
2018-05-12T23:22:35.332Z,25.1
2018-05-12T23:24:35.282Z,25.1
2018-05-12T23:26:35.589Z,25.1
2018-05-12T23:28:35.883Z,24.5
2018-05-12T23:30:35.868Z,25.1
2018-05-12T23:32:35.866Z,25.1
2018-05-12T23:34:36.022Z,25.1
2018-05-12T23:36:36.287Z,24
2018-05-12T23:38:36.389Z,25.1
2018-05-12T23:40:36.396Z,25.1
2018-05-12T23:42:36.765Z,24.5
2018-05-12T23:44:36.693Z,25.1
2018-05-12T23:46:36.940Z,24.5
2018-05-12T23:48:36.936Z,25.1
2018-05-12T23:50:37.044Z,24.5
2018-05-12T23:52:37.377Z,25.1
2018-05-12T23:54:37.398Z,25.1
2018-05-12T23:56:37.661Z,24.5
2018-05-12T23:58:38.002Z,25.1
